createdAt,value
2018-10-19T00:01:23.296Z,101959.83
2018-10-19T00:03:50.459Z,101953.81
2018-10-19T00:06:17.645Z,101962.97
2018-10-19T00:08:44.793Z,101956.52
2018-10-19T00:11:11.890Z,101952.75
2018-10-19T00:13:39.109Z,101958.38
2018-10-19T00:16:06.481Z,101952.47
2018-10-19T00:18:33.641Z,101959.80
2018-10-19T00:21:00.794Z,101950.02
2018-10-19T00:23:28.121Z,101950.08
2018-10-19T00:25:55.295Z,101952.33
2018-10-19T00:28:22.455Z,101950.08
2018-10-19T00:30:49.643Z,101949.88
2018-10-19T00:33:16.708Z,101945.09
2018-10-19T00:35:43.951Z,101949.63
2018-10-19T00:38:11.347Z,101945.89
2018-10-19T00:40:38.428Z,101947.38
2018-10-19T00:43:05.543Z,101950.19
2018-10-19T00:45:38.808Z,101945.63
2018-10-19T00:48:10.162Z,101938.27
2018-10-19T00:50:37.352Z,101942.85
2018-10-19T00:53:05.529Z,101947.97
2018-10-19T00:55:32.663Z,101947.39
2018-10-19T00:57:59.763Z,101947.39
2018-10-19T01:00:26.967Z,101949.55
2018-10-19T01:02:54.139Z,101939.83
2018-10-19T01:05:21.216Z,101942.46
2018-10-19T01:07:48.374Z,101946.05
2018-10-19T01:10:20.128Z,101941.20
2018-10-19T01:12:47.273Z,101939.28
2018-10-19T01:15:14.590Z,101940.25
2018-10-19T01:17:41.595Z,101936.16
2018-10-19T01:20:08.680Z,101935.10
2018-10-19T01:22:35.864Z,101937.38
2018-10-19T01:25:03.039Z,101934.54
2018-10-19T01:27:30.124Z,101935.57
2018-10-19T01:29:57.263Z,101937.16
2018-10-19T01:32:24.328Z,101936.55
2018-10-19T01:34:51.400Z,101936.34
2018-10-19T01:37:18.503Z,101936.11
2018-10-19T01:39:45.647Z,101929.38
2018-10-19T01:42:12.724Z,101939.42
2018-10-19T01:44:40.143Z,101936.35
2018-10-19T01:47:07.256Z,101939.12
2018-10-19T01:49:34.345Z,101937.33
2018-10-19T01:52:01.400Z,101943.40
2018-10-19T01:54:28.470Z,101940.53
2018-10-19T01:56:55.606Z,101949.23
2018-10-19T01:59:22.645Z,101942.54
2018-10-19T02:01:49.809Z,101943.87
2018-10-19T02:04:16.992Z,101937.84
2018-10-19T02:06:44.095Z,101942.54
2018-10-19T02:09:11.182Z,101944.09
2018-10-19T02:11:38.582Z,101940.69
2018-10-19T02:14:05.662Z,101944.38
2018-10-19T02:16:32.843Z,101943.80
2018-10-19T02:18:59.906Z,101940.41
2018-10-19T02:21:27.031Z,101940.70
2018-10-19T02:23:54.288Z,101946.95
2018-10-19T02:26:21.387Z,101943.20
2018-10-19T02:28:48.808Z,101944.68
2018-10-19T02:31:16.194Z,101947.84
2018-10-19T02:33:43.253Z,101955.54
2018-10-19T02:36:10.342Z,101958.71
2018-10-19T02:38:37.436Z,101953.17
2018-10-19T02:41:05.208Z,101950.79
2018-10-19T02:43:32.224Z,101954.69
2018-10-19T02:45:59.476Z,101952.09
2018-10-19T02:48:26.544Z,101948.44
2018-10-19T02:50:53.638Z,101947.59
2018-10-19T02:53:20.750Z,101947.92
2018-10-19T02:55:47.949Z,101950.33
2018-10-19T02:58:15.056Z,101947.59
2018-10-19T03:00:42.140Z,101947.88
2018-10-19T03:03:09.257Z,101955.90
2018-10-19T03:05:36.527Z,101947.53
2018-10-19T03:08:03.685Z,101947.30
2018-10-19T03:10:30.752Z,101943.09
2018-10-19T03:12:58.149Z,101944.80
2018-10-19T03:15:25.219Z,101942.69
2018-10-19T03:17:52.285Z,101939.15
2018-10-19T03:20:19.369Z,101951.11
2018-10-19T03:22:46.590Z,101951.72
2018-10-19T03:25:13.747Z,101949.67
2018-10-19T03:27:41.184Z,101950.61
2018-10-19T03:30:08.818Z,101962.06
2018-10-19T03:32:35.977Z,101943.81
2018-10-19T03:35:03.240Z,101946.31
2018-10-19T03:37:30.379Z,101949.42
2018-10-19T03:39:57.457Z,101949.94
2018-10-19T03:42:24.519Z,101947.41
2018-10-19T03:44:51.645Z,101957.62
2018-10-19T03:47:18.841Z,101955.91
2018-10-19T03:49:45.892Z,101952.53
2018-10-19T03:52:12.973Z,101954.16
2018-10-19T03:54:40.059Z,101956.36
2018-10-19T03:57:07.217Z,101954.11
2018-10-19T03:59:34.367Z,101959.59
2018-10-19T04:02:01.576Z,101962.58
2018-10-19T04:04:28.684Z,101965.53
2018-10-19T04:06:55.874Z,101965.04
2018-10-19T04:09:22.948Z,101966.23
2018-10-19T04:11:50.354Z,101963.95
2018-10-19T04:14:17.426Z,101963.88
2018-10-19T04:16:44.532Z,101969.44
2018-10-19T04:19:12.307Z,101969.13
2018-10-19T04:21:39.385Z,101966.58
2018-10-19T04:24:06.816Z,101972.87
2018-10-19T04:26:33.985Z,101971.59
2018-10-19T04:29:01.155Z,101971.41
2018-10-19T04:31:28.185Z,101973.95
2018-10-19T04:33:55.354Z,101975.47
2018-10-19T04:36:22.562Z,101972.25
2018-10-19T04:38:49.657Z,101973.56
2018-10-19T04:41:16.896Z,101973.16
2018-10-19T04:43:44.008Z,101972.47
2018-10-19T04:46:11.369Z,101969.17
2018-10-19T04:48:38.447Z,101963.95
2018-10-19T04:51:05.702Z,101966.14
2018-10-19T04:53:32.731Z,101965.07
2018-10-19T04:55:59.803Z,101959.77
2018-10-19T04:58:26.879Z,101963.68
2018-10-19T05:00:53.984Z,101968.20
2018-10-19T05:03:21.123Z,101971.41
2018-10-19T05:05:48.320Z,101976.17
2018-10-19T05:08:15.515Z,101975.66
2018-10-19T05:10:42.564Z,101977.41
2018-10-19T05:13:09.744Z,101981.88
2018-10-19T05:15:36.868Z,101973.14
2018-10-19T05:18:04.278Z,101975.33
2018-10-19T05:20:31.400Z,101977.30
2018-10-19T05:22:58.559Z,101980.34
2018-10-19T05:25:25.583Z,101979.98
2018-10-19T05:27:52.891Z,101977.19
2018-10-19T05:30:19.976Z,101982.50
2018-10-19T05:32:47.186Z,101978.75
2018-10-19T05:35:14.676Z,101978.71
2018-10-19T05:37:41.843Z,101983.14
2018-10-19T05:40:09.781Z,101982.50
2018-10-19T05:42:37.433Z,101988.70
2018-10-19T05:45:06.912Z,101991.75
2018-10-19T05:47:33.983Z,101983.23
2018-10-19T05:50:01.187Z,101974.66
2018-10-19T05:52:28.434Z,101986.30
2018-10-19T05:54:55.699Z,101985.34
2018-10-19T05:57:23.183Z,101984.55
2018-10-19T05:59:50.337Z,101984.69
2018-10-19T06:02:17.546Z,101988.67
2018-10-19T06:04:44.852Z,101988.16
2018-10-19T06:07:11.975Z,101991.03
2018-10-19T06:09:39.072Z,101993.68
2018-10-19T06:12:06.695Z,101992.33
2018-10-19T06:14:33.776Z,101993.76
2018-10-19T06:17:00.929Z,101997.89
2018-10-19T06:19:28.270Z,101990.80
2018-10-19T06:21:55.351Z,101994.91
2018-10-19T06:24:22.517Z,102001.59
2018-10-19T06:26:49.605Z,101996.66
2018-10-19T06:29:16.796Z,102001.63
2018-10-19T06:31:44.006Z,102003.59
2018-10-19T06:34:11.083Z,102005.55
2018-10-19T06:36:38.429Z,102014.00
2018-10-19T06:39:08.002Z,102015.68
2018-10-19T06:41:35.180Z,102018.11
2018-10-19T06:44:02.469Z,102019.52
2018-10-19T06:46:29.891Z,102016.64
2018-10-19T06:48:57.380Z,102018.59
2018-10-19T06:51:24.480Z,102023.24
2018-10-19T06:53:51.576Z,102023.96
2018-10-19T06:56:18.781Z,102006.26
2018-10-19T06:58:45.863Z,102024.13
2018-10-19T07:01:13.132Z,102029.70
2018-10-19T07:03:40.300Z,102031.77
2018-10-19T07:06:07.450Z,102029.30
2018-10-19T07:08:34.638Z,102035.86
2018-10-19T07:11:01.933Z,102034.91
2018-10-19T07:13:29.240Z,102036.70
2018-10-19T07:15:56.403Z,102033.56
2018-10-19T07:18:23.508Z,102039.19
2018-10-19T07:20:50.897Z,102030.57
2018-10-19T07:23:17.973Z,102042.14
2018-10-19T07:25:46.212Z,102037.82
2018-10-19T07:28:13.758Z,102040.95
2018-10-19T07:30:41.148Z,102042.05
2018-10-19T07:33:08.240Z,102043.28
2018-10-19T07:35:35.471Z,102046.36
2018-10-19T07:38:02.561Z,102047.37
2018-10-19T07:40:30.052Z,102040.20
2018-10-19T07:42:57.148Z,102042.50
2018-10-19T07:45:25.008Z,102041.68
2018-10-19T07:47:52.248Z,102044.56
2018-10-19T07:50:19.558Z,102043.71
2018-10-19T07:52:46.687Z,102044.64
2018-10-19T07:55:13.888Z,102054.53
2018-10-19T07:57:41.464Z,102053.17
2018-10-19T08:00:09.415Z,102048.16
2018-10-19T08:02:36.532Z,102051.16
2018-10-19T08:05:03.785Z,102055.84
2018-10-19T08:07:31.051Z,102059.58
2018-10-19T08:09:58.751Z,102052.30
2018-10-19T08:12:25.995Z,102051.27
2018-10-19T08:14:53.272Z,102052.30
2018-10-19T08:17:20.364Z,102052.45
2018-10-19T08:19:47.811Z,102058.70
2018-10-19T08:22:15.312Z,102053.12
2018-10-19T08:24:42.421Z,102055.75
2018-10-19T08:27:09.758Z,102061.48
2018-10-19T08:29:36.840Z,102065.00
2018-10-19T08:32:04.377Z,102061.25
2018-10-19T08:34:31.571Z,102073.47
2018-10-19T08:36:58.671Z,102072.77
2018-10-19T08:39:25.742Z,102068.97
2018-10-19T08:41:52.836Z,102067.69
2018-10-19T08:44:20.727Z,102074.91
2018-10-19T08:46:47.879Z,102078.06
2018-10-19T08:49:15.258Z,102077.11
2018-10-19T08:51:42.313Z,102074.53
2018-10-19T08:54:09.840Z,102078.28
2018-10-19T08:56:37.320Z,102075.86
2018-10-19T08:59:04.553Z,102086.45
2018-10-19T09:01:31.615Z,102082.53
2018-10-19T09:03:59.121Z,102083.36
2018-10-19T09:06:26.176Z,102085.66
2018-10-19T09:08:53.312Z,102093.04
2018-10-19T09:11:20.607Z,102082.25
2018-10-19T09:13:47.659Z,102082.84
2018-10-19T09:16:14.847Z,102085.62
2018-10-19T09:18:42.000Z,102080.77
2018-10-19T09:21:09.206Z,102080.87
2018-10-19T09:23:36.247Z,102077.43
2018-10-19T09:26:03.377Z,102077.41
2018-10-19T09:28:30.579Z,102078.74
2018-10-19T09:30:57.652Z,102074.09
2018-10-19T09:33:24.743Z,102064.97
2018-10-19T09:35:52.112Z,102071.73
2018-10-19T09:38:19.157Z,102070.64
2018-10-19T09:40:46.626Z,102073.70
2018-10-19T09:43:13.771Z,102075.06
2018-10-19T09:45:40.909Z,102070.37
2018-10-19T09:48:08.373Z,102067.13
2018-10-19T09:50:38.355Z,102062.77
2018-10-19T09:53:05.488Z,102063.52
2018-10-19T09:55:32.581Z,102058.99
2018-10-19T09:57:59.768Z,102057.27
2018-10-19T10:00:32.815Z,102054.76
2018-10-19T10:02:59.934Z,102060.41
2018-10-19T10:05:27.090Z,102052.52
2018-10-19T10:07:54.177Z,102050.00
2018-10-19T10:10:21.248Z,102055.14
2018-10-19T10:12:48.327Z,102051.23
2018-10-19T10:15:15.684Z,102050.22
2018-10-19T10:17:42.705Z,102047.41
2018-10-19T10:20:10.009Z,102039.58
2018-10-19T10:22:37.225Z,102041.34
2018-10-19T10:25:05.553Z,102046.38
2018-10-19T10:27:40.396Z,102043.63
2018-10-19T10:30:08.876Z,102036.42
2018-10-19T10:32:35.974Z,102039.74
2018-10-19T10:35:03.132Z,102039.01
2018-10-19T10:37:30.260Z,102039.50
2018-10-19T10:39:57.471Z,102031.98
2018-10-19T10:42:24.516Z,102027.70
2018-10-19T10:44:51.715Z,102032.39
2018-10-19T10:47:18.780Z,102045.27
2018-10-19T10:49:45.939Z,102035.72
2018-10-19T10:52:13.168Z,102040.61
2018-10-19T10:54:40.111Z,102048.27
2018-10-19T10:57:07.516Z,102039.93
2018-10-19T10:59:34.591Z,102035.66
2018-10-19T11:02:01.765Z,102033.14
2018-10-19T11:04:29.152Z,102034.53
2018-10-19T11:06:56.479Z,102037.13
2018-10-19T11:09:23.620Z,102030.56
2018-10-19T11:11:50.778Z,102023.55
2018-10-19T11:14:17.866Z,102031.72
2018-10-19T11:16:45.051Z,102032.59
2018-10-19T11:19:12.407Z,102029.20
2018-10-19T11:21:39.479Z,102028.94
2018-10-19T11:24:06.556Z,102031.45
2018-10-19T11:26:33.754Z,102035.17
2018-10-19T11:29:00.864Z,102033.52
2018-10-19T11:31:27.944Z,102032.91
2018-10-19T11:33:55.150Z,102035.17
2018-10-19T11:36:22.251Z,102033.77
2018-10-19T11:38:49.419Z,102035.43
2018-10-19T11:41:16.573Z,102030.94
2018-10-19T11:43:43.916Z,102028.03
2018-10-19T11:46:11.011Z,102027.54
2018-10-19T11:48:38.139Z,102023.12
2018-10-19T11:51:05.255Z,102015.97
2018-10-19T11:53:32.428Z,102013.42
2018-10-19T11:55:59.541Z,102007.69
2018-10-19T11:58:26.693Z,102006.27
2018-10-19T12:00:53.805Z,102017.08
2018-10-19T12:03:20.954Z,102008.72
2018-10-19T12:05:48.028Z,102016.89
2018-10-19T12:08:15.118Z,102006.24
2018-10-19T12:10:42.666Z,102010.99
2018-10-19T12:13:09.775Z,102010.25
2018-10-19T12:15:36.879Z,102002.62
2018-10-19T12:18:04.473Z,101997.20
2018-10-19T12:20:31.665Z,101999.96
2018-10-19T12:22:58.835Z,101998.84
2018-10-19T12:25:26.127Z,101998.34
2018-10-19T12:30:34.695Z,101999.37
2018-10-19T12:33:01.838Z,101994.33
2018-10-19T12:35:28.913Z,101992.18
2018-10-19T12:37:56.023Z,101986.35
2018-10-19T12:40:23.120Z,101977.30
2018-10-19T12:42:50.198Z,101977.53
2018-10-19T12:46:31.014Z,101984.67
2018-10-19T12:48:58.171Z,101979.61
2018-10-19T12:51:25.268Z,101974.20
2018-10-19T12:53:52.426Z,101969.37
2018-10-19T12:56:20.081Z,101971.56
2018-10-19T12:58:48.255Z,101968.80
2018-10-19T13:01:15.416Z,101964.41
2018-10-19T13:03:42.493Z,101967.34
2018-10-19T13:06:10.325Z,101957.58
2018-10-19T13:08:37.510Z,101950.97
2018-10-19T13:11:05.023Z,101944.55
2018-10-19T13:13:32.141Z,101947.22
2018-10-19T13:15:59.785Z,101945.86
2018-10-19T13:18:27.215Z,101941.18
2018-10-19T13:20:54.615Z,101944.60
2018-10-19T13:23:21.668Z,101946.06
2018-10-19T13:25:48.743Z,101940.11
2018-10-19T13:28:16.251Z,101936.59
2018-10-19T13:30:43.553Z,101940.38
2018-10-19T13:33:11.212Z,101936.62
2018-10-19T13:35:38.223Z,101938.86
2018-10-19T13:38:05.309Z,101941.83
2018-10-19T13:40:32.520Z,101943.73
2018-10-19T13:42:59.579Z,101939.99
2018-10-19T13:45:26.737Z,101931.66
2018-10-19T13:47:53.932Z,101933.48
2018-10-19T13:50:21.024Z,101924.16
2018-10-19T13:52:48.102Z,101922.88
2018-10-19T13:55:15.217Z,101915.77
2018-10-19T13:57:42.286Z,101910.77
2018-10-19T14:00:09.408Z,101910.22
2018-10-19T14:02:36.723Z,101908.11
2018-10-19T14:05:04.141Z,101904.98
2018-10-19T14:07:31.204Z,101913.18
2018-10-19T14:09:58.304Z,101912.03
2018-10-19T14:12:25.376Z,101912.03
2018-10-19T14:14:52.706Z,101914.27
2018-10-19T14:17:19.801Z,101908.77
2018-10-19T14:19:46.876Z,101907.99
2018-10-19T14:22:14.140Z,101911.98
2018-10-19T14:24:41.217Z,101914.64
2018-10-19T14:27:08.340Z,101916.97
2018-10-19T14:29:35.405Z,101922.84
2018-10-19T14:32:02.479Z,101923.00
2018-10-19T14:34:29.627Z,101918.00
2018-10-19T14:36:56.692Z,101919.17
2018-10-19T14:39:23.768Z,101917.15
2018-10-19T14:41:50.872Z,101914.00
2018-10-19T14:44:17.920Z,101910.94
2018-10-19T14:46:45.048Z,101914.76
2018-10-19T14:49:12.115Z,101913.50
2018-10-19T14:51:39.191Z,101913.42
2018-10-19T14:54:06.783Z,101907.87
2018-10-19T14:56:33.860Z,101908.52
2018-10-19T14:59:00.968Z,101904.41
2018-10-19T15:01:28.085Z,101904.43
2018-10-19T15:03:55.162Z,101908.59
2018-10-19T15:06:22.260Z,101907.97
2018-10-19T15:08:49.369Z,101909.73
2018-10-19T15:11:16.737Z,101909.46
2018-10-19T15:13:43.536Z,101902.85
2018-10-19T15:16:10.624Z,101904.77
2018-10-19T15:18:37.738Z,101910.69
2018-10-19T15:21:04.859Z,101908.43
2018-10-19T15:23:32.265Z,101907.95
2018-10-19T15:25:59.327Z,101907.39
2018-10-19T15:28:26.399Z,101910.26
2018-10-19T15:30:53.559Z,101910.86
2018-10-19T15:33:20.637Z,101908.70
2018-10-19T15:35:47.703Z,101906.86
2018-10-19T15:38:14.804Z,101910.42
2018-10-19T15:40:41.871Z,101905.60
2018-10-19T15:43:08.960Z,101906.91
2018-10-19T15:45:36.044Z,101907.45
2018-10-19T15:48:03.441Z,101899.48
2018-10-19T15:50:30.534Z,101910.23
2018-10-19T15:52:57.803Z,101913.61
2018-10-19T15:55:25.005Z,101910.23
2018-10-19T15:57:52.131Z,101908.58
2018-10-19T16:00:19.408Z,101912.06
2018-10-19T16:02:46.585Z,101917.59
2018-10-19T16:05:13.651Z,101916.45
2018-10-19T16:07:41.074Z,101915.45
2018-10-19T16:10:08.223Z,101915.83
2018-10-19T16:12:35.493Z,101918.33
2018-10-19T16:15:02.645Z,101912.36
2018-10-19T16:17:29.694Z,101921.89
2018-10-19T16:20:05.318Z,101929.06
2018-10-19T16:22:32.424Z,101928.64
2018-10-19T16:24:59.570Z,101923.08
2018-10-19T16:27:26.817Z,101926.52
2018-10-19T16:29:54.205Z,101927.14
2018-10-19T16:32:21.564Z,101932.48
2018-10-19T16:34:48.690Z,101938.73
2018-10-19T16:37:15.787Z,101942.81
2018-10-19T16:39:42.884Z,101941.41
2018-10-19T16:42:10.525Z,101942.37
2018-10-19T16:44:37.601Z,101950.58
2018-10-19T16:47:05.687Z,101951.23
2018-10-19T16:49:32.776Z,101951.54
2018-10-19T16:51:59.986Z,101950.84
2018-10-19T16:54:27.091Z,101949.81
2018-10-19T16:56:54.380Z,101949.32
2018-10-19T16:59:21.463Z,101947.65
2018-10-19T17:01:48.524Z,101945.95
2018-10-19T17:04:15.800Z,101949.27
2018-10-19T17:06:43.235Z,101961.58
2018-10-19T17:09:12.171Z,101951.78
2018-10-19T17:11:39.577Z,101955.24
2018-10-19T17:14:06.749Z,101952.59
2018-10-19T17:16:33.815Z,101949.38
2018-10-19T17:19:00.892Z,101944.09
2018-10-19T17:21:28.561Z,101952.13
2018-10-19T17:23:55.831Z,101959.50
2018-10-19T17:26:22.823Z,101960.69
2018-10-19T17:28:50.041Z,101958.45
2018-10-19T17:31:17.258Z,101962.44
2018-10-19T17:33:44.535Z,101967.30
2018-10-19T17:36:11.622Z,101968.56
2018-10-19T17:38:38.851Z,101965.34
2018-10-19T17:41:06.084Z,101960.79
2018-10-19T17:43:33.640Z,101961.81
2018-10-19T17:46:00.740Z,101963.19
2018-10-19T17:48:27.808Z,101968.09
2018-10-19T17:50:54.913Z,101974.75
2018-10-19T17:53:22.066Z,101966.83
2018-10-19T17:55:49.216Z,101970.77
2018-10-19T17:58:16.432Z,101975.34
2018-10-19T18:00:43.879Z,101979.05
2018-10-19T18:03:11.621Z,101978.64
2018-10-19T18:05:38.749Z,101986.63
2018-10-19T18:08:06.119Z,101990.14
2018-10-19T18:10:33.650Z,101986.17
2018-10-19T18:13:00.935Z,101998.45
2018-10-19T18:15:28.126Z,101989.05
2018-10-19T18:17:55.656Z,101989.93
2018-10-19T18:20:23.034Z,101991.51
2018-10-19T18:22:50.219Z,101993.58
2018-10-19T18:25:17.524Z,101997.17
2018-10-19T18:27:44.744Z,102002.55
2018-10-19T18:30:11.860Z,102008.83
2018-10-19T18:32:39.376Z,102001.41
2018-10-19T18:35:08.386Z,102010.69
2018-10-19T18:37:35.648Z,101945.51
2018-10-19T18:40:02.725Z,102013.91
2018-10-19T18:42:29.931Z,102006.43
2018-10-19T18:44:57.222Z,102015.55
2018-10-19T18:47:24.698Z,102017.38
2018-10-19T18:49:52.225Z,102020.33
2018-10-19T18:52:19.460Z,102019.31
2018-10-19T18:54:46.548Z,102019.90
2018-10-19T18:57:13.622Z,102011.48
2018-10-19T18:59:40.779Z,102029.62
2018-10-19T19:02:07.999Z,102033.48
2018-10-19T19:04:35.046Z,102033.73
2018-10-19T19:07:02.124Z,102039.89
2018-10-19T19:09:30.275Z,102036.44
2018-10-19T19:11:57.318Z,102040.00
2018-10-19T19:14:24.410Z,102045.03
2018-10-19T19:16:51.580Z,102042.12
2018-10-19T19:19:18.652Z,102036.24
2018-10-19T19:21:46.316Z,102033.30
2018-10-19T19:24:19.097Z,102031.03
2018-10-19T19:26:46.533Z,102022.23
2018-10-19T19:29:13.716Z,102026.27
2018-10-19T19:31:41.173Z,102024.91
2018-10-19T19:34:14.066Z,102025.20
2018-10-19T19:36:41.498Z,102020.37
2018-10-19T19:39:09.151Z,102024.22
2018-10-19T19:41:41.939Z,102022.19
2018-10-19T19:44:09.170Z,102025.19
2018-10-19T19:46:36.268Z,102031.27
2018-10-19T19:49:09.892Z,102029.52
2018-10-19T19:51:36.911Z,102030.20
2018-10-19T19:54:04.420Z,102019.69
2018-10-19T19:56:31.617Z,102026.19
2018-10-19T19:58:58.824Z,102026.28
2018-10-19T20:01:25.872Z,102023.37
2018-10-19T20:03:52.994Z,102014.79
2018-10-19T20:06:20.091Z,102004.03
2018-10-19T20:08:47.212Z,101995.85
2018-10-19T20:11:14.345Z,101992.83
2018-10-19T20:13:41.380Z,101999.28
2018-10-19T20:16:08.739Z,102003.49
2018-10-19T20:18:35.828Z,101999.33
2018-10-19T20:21:03.008Z,102000.84
2018-10-19T20:23:30.354Z,101997.51
2018-10-19T20:25:57.753Z,102012.91
2018-10-19T20:28:25.121Z,102002.85
2018-10-19T20:30:52.516Z,102004.88
2018-10-19T20:33:19.579Z,102011.88
2018-10-19T20:35:46.676Z,102015.80
2018-10-19T20:38:14.285Z,102023.13
2018-10-19T20:40:41.743Z,102015.34
2018-10-19T20:43:08.768Z,102030.16
2018-10-19T20:45:36.223Z,102028.36
2018-10-19T20:48:04.140Z,102023.51
2018-10-19T20:50:31.322Z,102026.89
2018-10-19T20:52:58.939Z,102028.52
2018-10-19T20:55:26.638Z,102033.85
2018-10-19T20:57:54.445Z,102038.75
2018-10-19T21:00:21.612Z,102044.23
2018-10-19T21:02:55.721Z,102045.11
2018-10-19T21:05:23.565Z,102045.84
2018-10-19T21:07:51.043Z,102045.97
2018-10-19T21:10:18.771Z,102045.93
2018-10-19T21:12:46.119Z,102046.44
2018-10-19T21:15:13.862Z,102051.92
2018-10-19T21:17:42.349Z,102045.75
2018-10-19T21:20:10.782Z,102050.46
2018-10-19T21:22:38.046Z,102047.80
2018-10-19T21:25:06.540Z,102051.89
2018-10-19T21:27:34.068Z,102048.59
2018-10-19T21:30:01.523Z,102045.75
2018-10-19T21:32:29.218Z,102040.62
2018-10-19T21:34:56.843Z,102036.70
2018-10-19T21:37:23.851Z,102041.42
2018-10-19T21:39:51.464Z,102038.70
2018-10-19T21:42:18.556Z,102041.28
2018-10-19T21:44:45.921Z,102039.14
2018-10-19T21:47:13.166Z,102039.66
2018-10-19T21:49:40.658Z,102031.73
2018-10-19T21:52:07.977Z,102036.50
2018-10-19T21:54:35.108Z,102040.77
2018-10-19T21:57:02.220Z,102035.77
2018-10-19T21:59:29.833Z,102036.42
2018-10-19T22:01:57.386Z,102037.24
2018-10-19T22:04:24.933Z,102032.61
2018-10-19T22:06:52.154Z,102034.00
2018-10-19T22:09:19.891Z,102034.02
2018-10-19T22:11:47.236Z,102032.30
2018-10-19T22:14:14.604Z,102026.06
2018-10-19T22:16:42.057Z,102017.63
2018-10-19T22:19:10.064Z,102025.17
2018-10-19T22:21:37.457Z,102020.61
2018-10-19T22:24:05.231Z,102025.47
2018-10-19T22:26:32.288Z,102026.43
2018-10-19T22:28:59.497Z,102023.92
2018-10-19T22:31:26.571Z,102025.75
2018-10-19T22:33:53.741Z,102025.61
2018-10-19T22:36:20.807Z,102026.21
2018-10-19T22:38:48.163Z,102036.50
2018-10-19T22:41:15.248Z,102041.05
2018-10-19T22:43:42.291Z,102055.67
2018-10-19T22:46:09.377Z,102054.48
2018-10-19T22:48:37.019Z,102063.64
2018-10-19T22:51:04.099Z,102054.87
2018-10-19T22:53:31.333Z,102062.11
2018-10-19T22:55:58.419Z,102061.55
2018-10-19T22:58:25.818Z,102062.08
2018-10-19T23:00:52.894Z,102063.37
2018-10-19T23:03:20.307Z,102058.77
2018-10-19T23:05:47.499Z,102061.50
2018-10-19T23:08:14.704Z,102053.41
2018-10-19T23:10:41.947Z,102057.42
2018-10-19T23:13:09.068Z,102061.38
2018-10-19T23:15:36.405Z,102056.19
2018-10-19T23:18:03.816Z,102059.73
2018-10-19T23:20:31.044Z,102072.64
2018-10-19T23:22:58.428Z,102073.16
2018-10-19T23:25:25.556Z,102073.56
2018-10-19T23:27:52.713Z,102075.70
2018-10-19T23:30:19.780Z,102075.52
2018-10-19T23:32:46.915Z,102070.34
2018-10-19T23:35:15.032Z,102073.50
2018-10-19T23:37:42.379Z,102069.96
2018-10-19T23:40:09.391Z,102076.52
2018-10-19T23:42:36.574Z,102073.36
2018-10-19T23:45:04.979Z,102075.09
2018-10-19T23:47:32.191Z,102067.03
2018-10-19T23:49:59.340Z,102065.22
2018-10-19T23:52:26.396Z,102061.23
2018-10-19T23:54:53.842Z,102057.29
2018-10-19T23:57:20.985Z,102060.30
2018-10-19T23:59:48.262Z,102060.23
